Time;durP1;ratioP1;P1;durP2;ratioP2;P2;SDS_P1;SDS_P2;PMS_P1;PMS_P2;Temp;Humidity;BMP_temperature;BMP_pressure;BME280_temperature;BME280_humidity;BME280_pressure;Samples;Min_cycle;Max_cycle;Signal;HPM_P1;HPM_P2
2021/12/19 00:08:28;;;;;;;28.20;16.98;;;;;;;5.38;100.00;103575.56;5115104;28;20483;-58
2021/12/19 00:10:08;;;;;;;31.58;18.65;;;;;;;5.42;100.00;103572.56;5114282;28;20057;-58
2021/12/19 00:12:34;;;;;;;35.15;20.83;;;;;;;5.42;100.00;103564.88;5114611;28;20039;-58
2021/12/19 00:14:59;;;;;;;36.70;21.50;;;;;;;5.43;100.00;103560.66;5114681;28;20020;-58
2021/12/19 00:17:24;;;;;;;40.13;23.40;;;;;;;5.40;100.00;103560.38;5113957;28;20044;-57
2021/12/19 00:19:50;;;;;;;38.60;21.83;;;;;;;5.40;100.00;103556.16;5114542;28;20040;-58
2021/12/19 00:22:15;;;;;;;38.88;21.75;;;;;;;5.40;100.00;103557.81;5113986;28;20077;-57
2021/12/19 00:24:40;;;;;;;39.17;22.17;;;;;;;5.40;100.00;103560.38;5113983;28;20064;-57
2021/12/19 00:27:06;;;;;;;42.30;22.85;;;;;;;5.37;100.00;103560.06;5114530;28;20490;-58
2021/12/19 00:29:31;;;;;;;39.83;21.77;;;;;;;5.40;100.00;103550.16;5113720;28;20084;-57
2021/12/19 00:31:56;;;;;;;40.72;22.15;;;;;;;5.39;100.00;103546.66;5114476;28;20080;-58
2021/12/19 00:34:21;;;;;;;43.20;22.50;;;;;;;5.39;100.00;103545.78;5114214;28;20486;-57
2021/12/19 00:36:47;;;;;;;44.60;23.38;;;;;;;5.37;100.00;103547.28;5113492;28;20038;-57
2021/12/19 00:39:12;;;;;;;43.13;23.73;;;;;;;5.38;100.00;103551.66;5114132;28;20019;-57
2021/12/19 00:41:38;;;;;;;43.72;23.90;;;;;;;5.36;100.00;103548.03;5114280;28;20119;-57
2021/12/19 00:44:11;;;;;;;47.17;25.30;;;;;;;5.34;100.00;103552.13;5113455;28;20076;-58
2021/12/19 00:46:51;;;;;;;52.30;25.70;;;;;;;5.32;100.00;103551.06;5114195;28;20023;-58
2021/12/19 00:49:18;;;;;;;52.40;26.35;;;;;;;5.31;100.00;103544.13;5113795;28;20043;-57
2021/12/19 00:51:44;;;;;;;57.25;26.17;;;;;;;5.27;100.00;103538.75;5113606;28;20594;-57
2021/12/19 00:54:10;;;;;;;53.35;23.98;;;;;;;5.23;100.00;103548.56;5114049;28;20042;-58
2021/12/19 00:56:37;;;;;;;51.38;23.05;;;;;;;5.20;100.00;103541.50;5113978;28;20471;-57
2021/12/19 00:59:03;;;;;;;57.40;24.80;;;;;;;5.17;100.00;103536.06;5113121;28;20087;-57
2021/12/19 01:01:28;;;;;;;50.80;22.75;;;;;;;5.17;100.00;103536.06;5113673;28;20161;-57
2021/12/19 01:03:53;;;;;;;53.25;22.33;;;;;;;5.16;100.00;103539.38;5113887;28;20031;-57
2021/12/19 01:06:19;;;;;;;61.80;23.20;;;;;;;5.11;100.00;103536.41;5113030;28;20023;-58
2021/12/19 01:08:45;;;;;;;48.22;21.55;;;;;;;5.09;100.00;103539.56;5113910;28;20552;-57
2021/12/19 01:11:11;;;;;;;53.17;22.05;;;;;;;5.08;100.00;103535.22;5113454;28;20473;-57
2021/12/19 01:13:36;;;;;;;57.47;23.20;;;;;;;5.07;100.00;103533.41;5112917;28;20073;-58
2021/12/19 01:16:02;;;;;;;49.58;21.80;;;;;;;5.07;100.00;103529.22;5113626;28;20049;-57
2021/12/19 01:18:28;;;;;;;50.33;22.15;;;;;;;5.05;100.00;103529.81;5113303;28;20023;-57
2021/12/19 01:20:54;;;;;;;53.88;22.58;;;;;;;5.04;100.00;103534.00;5112925;28;20066;-57
2021/12/19 01:23:21;;;;;;;64.95;25.17;;;;;;;5.04;100.00;103521.22;5113485;28;20032;-57
2021/12/19 01:25:47;;;;;;;62.33;25.88;;;;;;;5.05;100.00;103524.69;5112951;28;20027;-58
2021/12/19 01:28:12;;;;;;;53.83;22.08;;;;;;;5.05;100.00;103524.69;5113468;28;20023;-58
2021/12/19 01:30:38;;;;;;;57.80;22.58;;;;;;;5.05;100.00;103529.81;5113306;28;20116;-57
2021/12/19 01:33:03;;;;;;;58.13;23.58;;;;;;;5.05;100.00;103523.03;5112461;28;20486;-57
2021/12/19 01:35:29;;;;;;;56.10;22.48;;;;;;;5.03;100.00;103519.41;5113528;28;20050;-57
2021/12/19 01:37:54;;;;;;;53.33;21.88;;;;;;;5.00;100.00;103520.81;5113616;28;20035;-58
2021/12/19 01:40:21;;;;;;;56.50;21.92;;;;;;;4.98;100.00;103522.31;5112348;28;20024;-58
2021/12/19 01:42:50;;;;;;;55.38;21.52;;;;;;;4.99;100.00;103519.00;5113540;28;20051;-57
2021/12/19 01:45:23;;;;;;;59.42;21.63;;;;;;;4.98;100.00;103514.63;5112540;28;20122;-57
2021/12/19 01:47:49;;;;;;;65.80;22.73;;;;;;;4.95;100.00;103510.13;5112835;28;20035;-57
2021/12/19 01:50:14;;;;;;;65.45;23.85;;;;;;;4.98;100.00;103506.97;5113212;28;20024;-58
2021/12/19 01:52:40;;;;;;;62.42;23.38;;;;;;;4.95;100.00;103513.56;5113480;28;20036;-58
2021/12/19 01:55:06;;;;;;;63.17;24.77;;;;;;;4.93;100.00;103504.88;5112329;28;20032;-57
2021/12/19 01:57:31;;;;;;;71.00;25.65;;;;;;;4.94;100.00;103511.81;5113177;28;20020;-58
2021/12/19 01:59:56;;;;;;;73.18;27.83;;;;;;;4.93;100.00;103511.63;5113178;28;20115;-58
2021/12/19 02:02:22;;;;;;;73.97;26.50;;;;;;;4.93;100.00;103510.00;5111919;28;20039;-57
2021/12/19 02:04:48;;;;;;;80.88;28.55;;;;;;;4.93;100.00;103499.78;5113220;28;20032;-57
2021/12/19 02:07:13;;;;;;;76.97;27.70;;;;;;;4.92;100.00;103497.06;5113109;28;20103;-57
2021/12/19 02:09:41;;;;;;;77.85;27.17;;;;;;;4.90;100.00;103496.91;5112322;28;20382;-58
2021/12/19 02:12:07;;;;;;;80.85;28.95;;;;;;;4.90;100.00;103499.47;5112952;28;20386;-58
2021/12/19 02:14:32;;;;;;;81.22;27.88;;;;;;;4.90;100.00;103494.34;5112726;28;20483;-57
2021/12/19 02:16:58;;;;;;;87.35;27.90;;;;;;;4.92;100.00;103497.97;5112451;28;20039;-58
2021/12/19 02:19:24;;;;;;;102.03;31.35;;;;;;;4.90;100.00;103496.91;5112462;28;20043;-58
2021/12/19 02:21:50;;;;;;;85.13;27.77;;;;;;;4.88;100.00;103490.75;5112766;28;20028;-58
2021/12/19 02:24:15;;;;;;;85.72;27.75;;;;;;;4.85;100.00;103485.34;5112174;28;20031;-58
2021/12/19 02:26:41;;;;;;;88.25;28.10;;;;;;;4.83;100.00;103486.88;5112967;28;20379;-57
2021/12/19 02:29:07;;;;;;;99.18;29.25;;;;;;;4.82;100.00;103490.16;5111923;28;20042;-57
2021/12/19 02:31:32;;;;;;;95.13;31.25;;;;;;;4.81;100.00;103487.47;5112713;28;20028;-58
2021/12/19 02:34:20;;;;;;;93.07;29.83;;;;;;;4.76;100.00;103481.91;5113115;28;20024;-57
2021/12/19 02:37:14;;;;;;;95.18;30.70;;;;;;;4.75;100.00;103470.81;5112382;28;20490;-57
2021/12/19 02:50:00;;;;;;;55.92;24.33;;;;;;;4.63;100.00;103473.84;5112693;28;20379;-57
2021/12/19 02:52:26;;;;;;;50.97;22.73;;;;;;;4.59;100.00;103465.88;5112030;28;20027;-57
2021/12/19 02:54:51;;;;;;;50.58;25.02;;;;;;;4.56;100.00;103464.69;5112830;28;20100;-58
2021/12/19 02:57:17;;;;;;;54.47;24.48;;;;;;;4.56;100.00;103472.34;5114612;28;20028;-57
2021/12/19 02:59:42;;;;;;;57.75;26.05;;;;;;;4.55;100.00;103465.44;5116431;28;20023;-58
2021/12/19 03:02:07;;;;;;;60.75;26.33;;;;;;;4.54;100.00;103461.97;5116108;28;20432;-57
2021/12/19 03:04:32;;;;;;;60.88;26.88;;;;;;;4.53;100.00;103459.25;5115355;28;20024;-57
2021/12/19 03:06:58;;;;;;;63.95;26.63;;;;;;;4.51;100.00;103466.78;5116359;28;20047;-58
2021/12/19 03:20:21;;;;;;;75.82;27.30;;;;;;;4.48;100.00;103450.25;5114900;28;20497;-57
2021/12/19 03:22:46;;;;;;;75.20;27.83;;;;;;;4.48;100.00;103443.53;5115945;28;20024;-58
2021/12/19 03:25:11;;;;;;;77.60;27.42;;;;;;;4.50;100.00;103442.00;5115147;28;20028;-57
2021/12/19 03:27:36;;;;;;;80.53;28.10;;;;;;;4.50;100.00;103439.44;5115426;28;20028;-58
2021/12/19 03:30:04;;;;;;;80.50;29.42;;;;;;;4.52;100.00;103431.91;5115616;28;20055;-58
2021/12/19 03:32:29;;;;;;;86.35;30.45;;;;;;;4.50;100.00;103429.22;5114918;28;20023;-57
2021/12/19 03:34:55;;;;;;;91.88;31.30;;;;;;;4.50;100.00;103428.34;5115792;28;20020;-58
2021/12/19 03:37:20;;;;;;;91.97;28.92;;;;;;;4.50;100.00;103429.22;5115340;28;20012;-58
2021/12/19 03:42:29;;;;;;;76.10;27.45;;;;;;;4.44;100.00;103418.41;5115281;28;20077;-57
2021/12/19 03:44:54;;;;;;;85.63;26.23;;;;;;;4.43;100.00;103427.75;5115634;28;20424;-57
2021/12/19 03:47:21;;;;;;;90.25;28.98;;;;;;;4.41;100.00;103424.13;5114526;28;20069;-58
2021/12/19 03:49:46;;;;;;;55.28;20.73;;;;;;;4.36;100.00;103409.13;5115431;28;20023;-57
2021/12/19 03:52:12;;;;;;;51.15;19.27;;;;;;;4.31;100.00;103420.56;5115284;28;20031;-57
2021/12/19 03:54:38;;;;;;;53.10;18.80;;;;;;;4.27;100.00;103414.25;5114315;28;20036;-57
2021/12/19 03:57:03;;;;;;;43.17;16.40;;;;;;;4.25;100.00;103420.88;5115176;28;20432;-58
2021/12/19 03:59:30;;;;;;;52.78;17.48;;;;;;;4.23;100.00;103425.81;5115146;28;20027;-58
2021/12/19 04:01:56;;;;;;;44.17;15.95;;;;;;;4.18;100.00;103418.47;5114392;28;20028;-58
2021/12/19 04:04:21;;;;;;;27.80;12.30;;;;;;;4.10;100.00;103415.16;5114878;28;20020;-57
2021/12/19 04:06:46;;;;;;;27.95;11.55;;;;;;;4.04;100.00;103420.59;5114309;28;20049;-57
2021/12/19 04:09:11;;;;;;;22.88;9.93;;;;;;;3.98;100.00;103416.50;5114124;28;20064;-57
2021/12/19 04:11:37;;;;;;;25.08;10.10;;;;;;;3.97;100.00;103414.72;5114784;28;20394;-58
2021/12/19 04:14:02;;;;;;;24.85;11.23;;;;;;;3.91;100.00;103412.47;5114683;28;20020;-58
2021/12/19 04:16:27;;;;;;;27.50;11.90;;;;;;;3.90;100.00;103406.47;5114084;28;20028;-58
2021/12/19 04:18:53;;;;;;;26.27;11.55;;;;;;;3.90;100.00;103400.44;5114693;28;20024;-57
2021/12/19 04:21:18;;;;;;;28.63;11.85;;;;;;;3.88;100.00;103392.66;5114128;28;20039;-58
2021/12/19 04:23:43;;;;;;;24.92;12.70;;;;;;;3.85;100.00;103387.25;5114118;28;20034;-57
2021/12/19 04:26:09;;;;;;;25.88;11.98;;;;;;;3.85;100.00;103384.72;5114689;28;20020;-57
2021/12/19 04:28:34;;;;;;;25.20;11.77;;;;;;;3.82;100.00;103384.38;5113851;27;20031;-57
2021/12/19 04:31:01;;;;;;;23.33;11.43;;;;;;;3.84;100.00;103389.66;5114613;27;20015;-56
2021/12/19 04:33:28;;;;;;;23.75;10.90;;;;;;;3.83;100.00;103382.75;5114143;28;20526;-58
2021/12/19 04:35:59;;;;;;;25.90;11.00;;;;;;;3.83;100.00;103376.00;5113685;28;20027;-57
2021/12/19 04:39:01;;;;;;;26.17;11.32;;;;;;;3.83;100.00;103364.91;5114121;28;20027;-58
2021/12/19 04:52:40;;;;;;;19.95;8.50;;;;;;;3.93;100.00;103358.28;5113989;28;20043;-57
2021/12/19 04:58:01;;;;;;;24.15;10.13;;;;;;;3.97;100.00;103345.84;5113373;28;20039;-58
2021/12/19 05:00:38;;;;;;;22.73;9.35;;;;;;;4.00;100.00;103352.13;5113770;28;20020;-57
2021/12/19 05:03:14;;;;;;;23.60;10.20;;;;;;;4.01;100.00;103355.59;5113673;28;20103;-57
2021/12/19 05:06:35;;;;;;;21.90;9.32;;;;;;;4.03;100.00;103342.22;5113322;28;20024;-58
2021/12/19 05:16:34;;;;;;;26.98;10.25;;;;;;;4.05;100.00;103344.91;5113819;28;20032;-57
2021/12/19 05:19:06;;;;;;;21.55;9.75;;;;;;;4.08;100.00;103347.75;5112159;28;20049;-57
2021/12/19 05:21:33;;;;;;;27.20;10.93;;;;;;;4.07;100.00;103343.44;5113456;28;20103;-57
2021/12/19 05:26:24;;;;;;;24.85;10.57;;;;;;;4.12;100.00;103347.31;5112696;28;20042;-57
2021/12/19 05:28:52;;;;;;;25.95;10.15;;;;;;;4.10;100.00;103344.59;5113704;28;20023;-57
2021/12/19 05:31:18;;;;;;;;;;;;;;;4.23;100.00;103351.78;5113623;28;20035;-57
2021/12/19 05:33:45;;;;;;;28.70;11.45;;;;;;;4.14;100.00;103350.00;5112980;28;20372;-57
2021/12/19 05:47:11;;;;;;;32.30;12.50;;;;;;;4.12;100.00;103335.44;5112527;28;20532;-58
2021/12/19 05:49:37;;;;;;;31.65;12.25;;;;;;;4.14;100.00;103333.03;5113422;28;20027;-57
2021/12/19 05:52:02;;;;;;;30.00;11.35;;;;;;;4.11;100.00;103332.75;5113047;28;20031;-57
2021/12/19 05:54:27;;;;;;;34.38;11.73;;;;;;;4.12;100.00;103330.34;5112739;28;20019;-57
2021/12/19 05:56:53;;;;;;;35.47;11.60;;;;;;;4.11;100.00;103325.09;5113337;28;20028;-58
2021/12/19 05:59:19;;;;;;;29.98;11.75;;;;;;;4.11;100.00;103314.88;5112735;28;20026;-58
2021/12/19 06:01:46;;;;;;;30.95;11.60;;;;;;;4.11;100.00;103308.13;5112485;28;20384;-57
2021/12/19 06:04:11;;;;;;;35.07;12.13;;;;;;;4.11;100.00;103309.78;5112979;28;20486;-58
2021/12/19 06:06:37;;;;;;;34.08;11.30;;;;;;;4.14;100.00;103310.06;5112812;28;20273;-57
2021/12/19 06:09:03;;;;;;;32.05;10.15;;;;;;;4.12;100.00;103315.03;5112420;28;20038;-57
2021/12/19 06:11:28;;;;;;;29.83;10.60;;;;;;;4.15;100.00;103324.63;5113048;28;20072;-57
2021/12/19 06:13:53;;;;;;;29.42;11.38;;;;;;;4.16;100.00;103323.88;5112785;28;20114;-57
2021/12/19 06:16:19;;;;;;;31.58;11.68;;;;;;;4.14;100.00;103312.63;5112183;28;20019;-57
2021/12/19 06:18:44;;;;;;;33.33;12.23;;;;;;;4.16;100.00;103315.31;5113516;28;20034;-57
2021/12/19 06:21:10;;;;;;;34.92;12.77;;;;;;;4.19;100.00;103313.94;5111900;28;20043;-57
2021/12/19 06:23:35;;;;;;;36.15;12.88;;;;;;;4.15;100.00;103310.97;5113054;28;20026;-57
2021/12/19 06:26:01;;;;;;;33.58;12.88;;;;;;;4.16;100.00;103321.34;5113049;28;20027;-57
2021/12/19 06:28:26;;;;;;;35.70;13.20;;;;;;;4.15;100.00;103324.63;5111869;28;20077;-56
2021/12/19 06:30:52;;;;;;;37.28;12.57;;;;;;;4.15;100.00;103322.06;5115219;28;20027;-57
2021/12/19 06:33:17;;;;;;;34.75;13.30;;;;;;;4.15;100.00;103309.31;5116774;28;20073;-58
2021/12/19 06:35:42;;;;;;;32.67;12.93;;;;;;;4.14;100.00;103307.50;5116186;28;20031;-57
2021/12/19 06:38:08;;;;;;;39.50;14.13;;;;;;;4.16;100.00;103303.47;5116596;28;20023;-58
2021/12/19 06:40:34;;;;;;;40.17;14.40;;;;;;;4.18;100.00;103311.25;5116584;28;20089;-57
2021/12/19 06:43:00;;;;;;;38.33;14.20;;;;;;;4.18;100.00;103306.16;5115973;28;20019;-57
2021/12/19 06:45:26;;;;;;;38.42;14.43;;;;;;;4.19;100.00;103290.97;5116305;28;20368;-57
2021/12/19 06:47:51;;;;;;;43.10;15.93;;;;;;;4.20;100.00;103291.91;5116611;28;20425;-57
2021/12/19 06:50:18;;;;;;;41.15;16.33;;;;;;;4.20;100.00;103295.34;5115417;28;20035;-58
2021/12/19 06:52:44;;;;;;;37.55;15.82;;;;;;;4.23;100.00;103289.63;5116559;28;20031;-58
2021/12/19 06:55:11;;;;;;;36.20;14.95;;;;;;;4.24;100.00;103279.56;5116151;28;20015;-57
2021/12/19 06:57:37;;;;;;;45.97;17.07;;;;;;;4.23;100.00;103262.44;5115778;28;20093;-58
2021/12/19 07:00:06;;;;;;;42.20;16.17;;;;;;;4.25;100.00;103268.59;5116067;28;20424;-58
2021/12/19 07:02:31;;;;;;;43.92;16.45;;;;;;;4.26;100.00;103262.75;5116050;28;20032;-58
2021/12/19 07:04:56;;;;;;;40.90;16.90;;;;;;;4.28;100.00;103266.31;5115883;28;20540;-58
2021/12/19 07:07:22;;;;;;;44.33;17.55;;;;;;;4.28;100.00;103265.44;5115879;28;20035;-57
2021/12/19 07:09:47;;;;;;;47.47;17.90;;;;;;;4.31;100.00;103267.38;5115954;28;20479;-58
2021/12/19 07:12:12;;;;;;;47.05;18.60;;;;;;;4.32;100.00;103266.63;5115560;27;20046;-57
2021/12/19 07:14:37;;;;;;;49.78;19.02;;;;;;;4.33;100.00;103263.31;5115871;28;20024;-57
2021/12/19 07:17:03;;;;;;;55.28;19.60;;;;;;;4.35;100.00;103269.44;5115766;28;20042;-58
2021/12/19 07:19:28;;;;;;;56.78;21.08;;;;;;;4.37;100.00;103270.50;5115253;28;20124;-57
2021/12/19 07:21:54;;;;;;;52.78;21.33;;;;;;;4.38;100.00;103267.22;5115873;28;20032;-58
2021/12/19 07:24:19;;;;;;;54.67;20.88;;;;;;;4.39;100.00;103266.44;5115194;28;20030;-58
2021/12/19 07:26:44;;;;;;;60.85;22.20;;;;;;;4.41;100.00;103270.03;5115474;28;20023;-57
2021/12/19 07:29:10;;;;;;;60.85;22.25;;;;;;;4.44;100.00;103271.22;5115334;28;20425;-57
2021/12/19 07:31:37;;;;;;;53.65;20.83;;;;;;;4.46;100.00;103263.72;5114950;28;20051;-57
2021/12/19 07:34:04;;;;;;;55.85;21.65;;;;;;;4.49;100.00;103263.97;5115567;28;20026;-57
2021/12/19 07:36:37;;;;;;;52.35;22.95;;;;;;;4.50;100.00;103258.13;5115496;27;20073;-57
2021/12/19 07:39:05;;;;;;;53.67;21.50;;;;;;;4.52;100.00;103256.63;5114807;28;20501;-57
2021/12/19 07:41:31;;;;;;;52.83;20.90;;;;;;;4.53;100.00;103258.44;5114449;28;20031;-57
2021/12/19 07:43:56;;;;;;;58.30;21.42;;;;;;;4.55;100.00;103256.91;5115194;28;20072;-57
2021/12/19 07:46:21;;;;;;;51.28;19.90;;;;;;;4.58;100.00;103254.66;5114531;28;20511;-57
2021/12/19 07:48:47;;;;;;;47.38;19.02;;;;;;;4.60;100.00;103253.13;5115584;28;20023;-57
2021/12/19 07:51:12;;;;;;;49.83;19.75;;;;;;;4.63;100.00;103252.50;5114929;28;20106;-57
2021/12/19 07:53:37;;;;;;;47.50;19.30;;;;;;;4.65;100.00;103247.53;5114538;28;20027;-59
2021/12/19 07:56:03;;;;;;;52.38;20.13;;;;;;;4.64;100.00;103244.09;5115049;28;20062;-57
2021/12/19 07:58:28;;;;;;;44.95;17.98;;;;;;;4.67;100.00;103239.25;5114770;28;20387;-57
2021/12/19 08:03:29;;;;;;;42.35;19.23;;;;;;;4.71;100.00;103241.34;5243207;22;20376;-57
2021/12/19 08:05:54;;;;;;;42.58;18.13;;;;;;;4.72;100.00;103238.00;4994984;28;20034;-58
2021/12/19 08:08:25;;;;;;;40.42;18.20;;;;;;;4.75;100.00;103237.41;4995339;28;20031;-57
2021/12/19 08:13:35;;;;;;;48.83;21.30;;;;;;;4.77;100.00;103241.00;4995306;28;20041;-58
2021/12/19 08:16:00;;;;;;;44.38;20.98;;;;;;;4.79;100.00;103244.63;4994304;28;20026;-57
2021/12/19 08:18:26;;;;;;;42.58;21.02;;;;;;;4.81;100.00;103237.09;4995223;28;20444;-57
2021/12/19 08:20:51;;;;;;;52.65;22.63;;;;;;;4.84;100.00;103238.25;4994783;28;20038;-58
2021/12/19 08:23:16;;;;;;;46.97;22.27;;;;;;;4.82;100.00;103232.09;4994325;28;20172;-58
2021/12/19 08:25:41;;;;;;;45.47;20.70;;;;;;;4.84;100.00;103225.50;4994510;28;20045;-58
2021/12/19 08:28:07;;;;;;;47.38;22.65;;;;;;;4.86;100.00;103231.63;4994843;28;20022;-58
2021/12/19 08:30:32;;;;;;;40.53;21.38;;;;;;;4.88;100.00;103229.19;4993742;28;20026;-58
2021/12/19 08:32:58;;;;;;;39.03;18.85;;;;;;;4.88;100.00;103230.13;4994495;28;20027;-58
2021/12/19 08:35:24;;;;;;;35.88;17.80;;;;;;;4.90;100.00;103232.81;4994644;28;20022;-57
2021/12/19 08:37:49;;;;;;;39.00;17.27;;;;;;;4.93;100.00;103231.44;4993598;28;20030;-57
2021/12/19 08:40:14;;;;;;;33.17;15.52;;;;;;;4.95;100.00;103231.56;4994292;28;20500;-58
2021/12/19 08:42:40;;;;;;;35.25;16.35;;;;;;;4.99;100.00;103233.63;4994190;28;20026;-57
2021/12/19 08:45:06;;;;;;;34.38;15.13;;;;;;;5.02;100.00;103233.00;4993758;28;20109;-58
2021/12/19 08:47:32;;;;;;;30.02;14.23;;;;;;;5.04;100.00;103232.41;4994412;28;20038;-57
2021/12/19 08:49:57;;;;;;;27.85;13.32;;;;;;;5.05;100.00;103223.09;4994508;28;20026;-56
2021/12/19 08:52:22;;;;;;;27.83;12.27;;;;;;;5.07;100.00;103221.56;4993807;28;20030;-54
2021/12/19 08:54:48;;;;;;;24.15;11.75;;;;;;;5.10;100.00;103216.72;4993902;28;20030;-56
2021/12/19 08:57:13;;;;;;;20.85;10.38;;;;;;;5.11;100.00;103215.94;4994254;28;20022;-57
2021/12/19 08:59:38;;;;;;;19.20;10.13;;;;;;;5.12;100.00;103215.19;4993188;28;20101;-57
2021/12/19 09:02:03;;;;;;;20.55;10.00;;;;;;;5.14;100.00;103218.81;4993877;28;20180;-57
2021/12/19 09:04:30;;;;;;;21.90;9.05;;;;;;;5.17;100.00;103213.94;4994369;28;20500;-57
2021/12/19 09:06:56;;;;;;;21.60;9.73;;;;;;;5.18;100.00;103215.75;4993006;28;20388;-57
2021/12/19 09:09:22;;;;;;;20.48;8.88;;;;;;;5.19;100.00;103212.44;4994175;28;20034;-57
2021/12/19 09:11:48;;;;;;;19.42;8.30;;;;;;;5.20;100.00;103209.13;4993120;28;20018;-56
2021/12/19 09:14:13;;;;;;;18.60;9.13;;;;;;;5.23;100.00;103205.94;4993896;28;20037;-57
2021/12/19 09:16:38;;;;;;;19.95;9.50;;;;;;;5.25;100.00;103214.63;4993878;28;20042;-57
2021/12/19 09:19:04;;;;;;;18.75;8.88;;;;;;;5.26;100.00;103209.66;4993248;28;20054;-53
2021/12/19 09:21:29;;;;;;;22.58;10.52;;;;;;;5.28;100.00;103208.16;4993871;28;20066;-57
2021/12/19 09:23:55;;;;;;;21.35;9.63;;;;;;;5.30;100.00;103210.84;4993616;28;20050;-57
2021/12/19 09:26:20;;;;;;;23.73;10.32;;;;;;;5.31;100.00;103206.59;4993178;28;20385;-57
2021/12/19 09:28:46;;;;;;;22.73;10.30;;;;;;;5.33;100.00;103211.09;4993414;28;20034;-57
2021/12/19 09:31:11;;;;;;;25.25;11.90;;;;;;;5.35;100.00;103208.69;4993755;28;20033;-57
2021/12/19 09:33:36;;;;;;;25.42;11.85;;;;;;;5.35;100.00;103206.13;4992868;28;20065;-57
2021/12/19 09:36:02;;;;;;;27.60;12.52;;;;;;;5.35;100.00;103209.59;4994013;28;20081;-56
2021/12/19 09:38:27;;;;;;;27.48;13.27;;;;;;;5.34;100.00;103202.66;4993732;28;20057;-57
2021/12/19 09:41:01;;;;;;;27.10;13.27;;;;;;;5.36;100.00;103205.34;4992348;28;20165;-57
2021/12/19 09:43:42;;;;;;;28.45;13.38;;;;;;;5.37;100.00;103204.59;4993463;28;20036;-57
2021/12/19 09:46:16;;;;;;;27.60;13.52;;;;;;;5.37;100.00;103202.97;4993686;28;20041;-57
2021/12/19 09:48:45;;;;;;;26.65;13.57;;;;;;;5.35;100.00;103204.47;4990980;28;20032;-57
2021/12/19 09:51:12;;;;;;;33.05;15.05;;;;;;;5.35;100.00;103203.59;4993314;28;20037;-57
2021/12/19 09:53:39;;;;;;;32.15;14.70;;;;;;;5.37;100.00;103202.03;4993232;28;20026;-57
2021/12/19 09:56:06;;;;;;;27.73;14.40;;;;;;;5.40;100.00;103204.88;4992643;28;20026;-57
2021/12/19 09:58:33;;;;;;;31.50;13.80;;;;;;;5.40;100.00;103215.13;4993468;28;20041;-57
2021/12/19 10:01:00;;;;;;;31.33;13.87;;;;;;;5.40;100.00;103210.00;4993398;28;20022;-57
2021/12/19 10:03:25;;;;;;;29.60;14.52;;;;;;;5.41;100.00;103206.66;4993118;28;20141;-57
2021/12/19 10:06:20;;;;;;;26.35;14.18;;;;;;;5.43;100.00;103207.69;4995562;28;20125;-57
2021/12/19 10:08:48;;;;;;;24.58;13.00;;;;;;;5.44;100.00;103209.50;4996460;28;20026;-57
2021/12/19 10:11:35;;;;;;;24.58;10.93;;;;;;;5.50;100.00;103198.91;4997412;28;20030;-57
2021/12/19 10:14:01;;;;;;;20.02;10.93;;;;;;;5.45;100.00;103201.09;4997349;28;20030;-57
2021/12/19 10:16:30;;;;;;;27.42;13.38;;;;;;;5.44;100.00;103192.50;4996617;28;20034;-57
2021/12/19 10:19:00;;;;;;;21.30;13.20;;;;;;;5.45;100.00;103193.41;4996896;28;20050;-57
2021/12/19 10:21:27;;;;;;;24.13;13.68;;;;;;;5.46;100.00;103187.50;4997384;28;20050;-57
2021/12/19 10:23:59;;;;;;;25.85;14.93;;;;;;;5.49;100.00;103184.31;4996238;28;20030;-57
2021/12/19 10:26:38;;;;;;;27.70;16.23;;;;;;;5.51;100.00;103180.25;4997174;28;20080;-57
2021/12/19 10:29:03;;;;;;;28.05;15.25;;;;;;;5.55;100.00;103184.88;4996927;28;20031;-57
2021/12/19 10:31:29;;;;;;;28.35;15.48;;;;;;;5.55;100.00;103178.09;4996090;28;20034;-57
2021/12/19 10:33:55;;;;;;;28.40;15.85;;;;;;;5.54;100.00;103171.19;4996557;28;20105;-57
2021/12/19 10:36:21;;;;;;;25.77;15.23;;;;;;;5.56;100.00;103169.66;4996053;28;20608;-57
2021/12/19 10:38:52;;;;;;;23.08;14.07;;;;;;;5.58;100.00;103168.13;4996699;28;20108;-57
2021/12/19 10:41:22;;;;;;;27.23;13.93;;;;;;;5.58;100.00;103173.25;4997041;28;20056;-57
2021/12/19 10:43:56;;;;;;;22.38;13.95;;;;;;;5.55;100.00;103170.44;4995737;28;20023;-57
2021/12/19 10:46:30;;;;;;;22.15;14.00;;;;;;;5.56;100.00;103164.53;4996816;28;20073;-57
2021/12/19 10:48:57;;;;;;;20.80;12.88;;;;;;;5.53;100.00;103164.28;4996379;28;20492;-57
2021/12/19 10:51:24;;;;;;;23.70;13.20;;;;;;;5.52;100.00;103162.47;4995771;28;20105;-57
2021/12/19 10:53:55;;;;;;;27.67;15.45;;;;;;;5.51;100.00;103158.13;4996323;28;20037;-57
2021/12/19 10:56:36;;;;;;;23.90;13.95;;;;;;;5.52;100.00;103157.34;4996436;28;20029;-57
2021/12/19 10:59:07;;;;;;;26.48;15.43;;;;;;;5.48;100.00;103152.75;4995511;28;20469;-57
2021/12/19 11:01:38;;;;;;;24.02;14.00;;;;;;;5.50;100.00;103151.22;4996078;28;20585;-57
2021/12/19 11:04:10;;;;;;;23.80;13.98;;;;;;;5.51;100.00;103144.44;4996207;28;20051;-57
2021/12/19 11:06:44;;;;;;;22.85;13.35;;;;;;;5.53;100.00;103138.69;4995301;28;20049;-57
2021/12/19 11:09:30;;;;;;;19.90;12.60;;;;;;;5.54;100.00;103137.03;4996489;28;20026;-57
2021/12/19 11:12:11;;;;;;;13.35;9.48;;;;;;;5.55;100.00;103134.63;4994833;28;20042;-57
2021/12/19 11:14:43;;;;;;;14.82;8.88;;;;;;;5.54;100.00;103130.25;4995993;28;20033;-57
2021/12/19 11:17:30;;;;;;;12.30;7.68;;;;;;;5.57;100.00;103120.28;4994914;28;20022;-58
2021/12/19 11:19:56;;;;;;;14.20;8.77;;;;;;;5.53;100.00;103114.78;4995282;28;20096;-57
2021/12/19 11:22:27;;;;;;;9.20;5.80;;;;;;;5.51;100.00;103104.41;4996035;28;20313;-57
2021/12/19 11:24:58;;;;;;;11.40;7.60;;;;;;;5.50;100.00;103102.63;4995770;28;20044;-57
2021/12/19 11:27:24;;;;;;;16.65;10.23;;;;;;;5.47;100.00;103102.34;4995182;28;20029;-57
2021/12/19 11:29:51;;;;;;;25.63;14.77;;;;;;;5.45;100.00;103088.53;4995472;28;20030;-57
2021/12/19 11:32:20;;;;;;;10.48;5.78;;;;;;;5.45;100.00;103091.09;4996033;28;20105;-57
2021/12/19 11:35:00;;;;;;;13.35;7.93;;;;;;;5.48;100.00;103088.81;4994916;28;20097;-57
2021/12/19 11:37:31;;;;;;;13.70;9.93;;;;;;;5.46;100.00;103080.09;4995905;28;20069;-57
2021/12/19 11:39:57;;;;;;;12.93;8.85;;;;;;;5.44;100.00;103081.63;4994697;28;20042;-57
2021/12/19 11:42:33;;;;;;;10.18;6.57;;;;;;;5.47;100.00;103086.13;4995484;28;20482;-57
2021/12/19 11:47:48;;;;;;;7.97;5.72;;;;;;;5.47;100.00;103076.78;4994958;28;20034;-57
2021/12/19 11:50:22;;;;;;;8.57;4.90;;;;;;;5.46;100.00;103074.09;4995574;28;20029;-57
2021/12/19 11:52:49;;;;;;;7.45;4.70;;;;;;;5.47;100.00;103081.00;4995195;28;20405;-57
2021/12/19 11:55:14;;;;;;;7.85;5.13;;;;;;;5.48;100.00;103073.44;4994550;28;20384;-57
2021/12/19 11:58:04;;;;;;;8.90;5.83;;;;;;;5.50;100.00;103071.94;4995075;28;20113;-57
2021/12/19 12:00:32;;;;;;;10.00;5.50;;;;;;;5.52;100.00;103070.38;4995230;28;20293;-57
2021/12/19 12:03:12;;;;;;;7.22;5.03;;;;;;;5.56;100.00;103067.31;4994283;28;20065;-57
2021/12/19 12:05:38;;;;;;;9.95;6.22;;;;;;;5.55;100.00;103057.88;4995097;28;20030;-57
2021/12/19 12:08:04;;;;;;;9.98;6.88;;;;;;;5.56;100.00;103051.97;4994368;28;20493;-57
2021/12/19 12:10:49;;;;;;;8.38;5.50;;;;;;;5.60;100.00;103068.50;4995010;28;20031;-57
2021/12/19 12:13:31;;;;;;;10.23;6.65;;;;;;;5.58;100.00;103058.13;4995019;28;20030;-57
2021/12/19 12:18:43;;;;;;;12.52;6.97;;;;;;;5.57;100.00;103052.88;4987527;28;20129;-57
2021/12/19 12:21:18;;;;;;;9.65;6.40;;;;;;;5.57;100.00;103052.88;4994917;28;20159;-57
2021/12/19 12:23:58;;;;;;;10.23;6.63;;;;;;;5.55;100.00;103045.09;4986581;28;20031;-57
2021/12/19 12:26:33;;;;;;;11.25;7.07;;;;;;;5.55;100.00;103039.97;4983621;28;20046;-57
2021/12/19 12:28:59;;;;;;;13.25;7.32;;;;;;;5.56;100.00;103031.50;4984426;28;20027;-57
2021/12/19 12:31:24;;;;;;;13.80;9.57;;;;;;;5.57;100.00;103032.44;4983540;28;20030;-57